createdAt,value
2018-08-17T00:01:19.776Z,14.97
2018-08-17T00:03:47.552Z,15.00
2018-08-17T00:06:15.628Z,15.70
2018-08-17T00:08:43.411Z,14.87
2018-08-17T00:11:11.370Z,16.87
2018-08-17T00:13:39.321Z,16.60
2018-08-17T00:16:07.758Z,16.97
2018-08-17T00:18:35.599Z,24.47
2018-08-17T00:21:04.451Z,28.83
2018-08-17T00:23:32.326Z,20.70
2018-08-17T00:26:00.318Z,19.27
2018-08-17T00:28:28.125Z,20.23
2018-08-17T00:30:56.090Z,20.53
2018-08-17T00:33:24.641Z,20.07
2018-08-17T00:35:52.430Z,21.17
2018-08-17T00:38:20.207Z,21.03
2018-08-17T00:40:48.150Z,24.63
2018-08-17T00:43:16.585Z,22.23
2018-08-17T00:45:44.347Z,24.40
2018-08-17T00:48:13.164Z,22.10
2018-08-17T00:50:41.674Z,22.07
2018-08-17T00:53:09.377Z,20.60
2018-08-17T00:55:37.085Z,19.73
2018-08-17T00:58:05.014Z,20.97
2018-08-17T01:00:34.044Z,20.47
2018-08-17T01:03:02.055Z,22.80
2018-08-17T01:05:29.804Z,23.37
2018-08-17T01:07:58.311Z,23.20
2018-08-17T01:10:26.359Z,21.53
2018-08-17T01:12:54.110Z,22.70
2018-08-17T01:15:21.938Z,24.27
2018-08-17T01:17:49.955Z,21.63
2018-08-17T01:20:17.922Z,21.57
2018-08-17T01:22:45.799Z,19.60
2018-08-17T01:25:13.510Z,21.73
2018-08-17T01:27:41.418Z,19.30
2018-08-17T01:30:09.560Z,17.60
2018-08-17T01:32:37.743Z,19.10
2018-08-17T01:35:06.568Z,18.27
2018-08-17T01:37:34.409Z,18.37
2018-08-17T01:40:02.467Z,18.80
2018-08-17T01:42:30.478Z,16.80
2018-08-17T01:44:58.332Z,16.57
2018-08-17T01:47:26.059Z,17.20
2018-08-17T01:49:53.819Z,18.30
2018-08-17T01:52:21.939Z,20.23
2018-08-17T01:54:49.617Z,17.57
2018-08-17T01:57:17.338Z,17.37
2018-08-17T01:59:45.224Z,18.83
2018-08-17T02:02:13.410Z,17.30
2018-08-17T02:04:42.271Z,19.70
2018-08-17T02:07:10.252Z,18.40
2018-08-17T02:09:38.178Z,17.63
2018-08-17T02:12:06.170Z,17.73
2018-08-17T02:14:34.093Z,20.17
2018-08-17T02:17:01.967Z,18.57
2018-08-17T02:19:29.865Z,17.90
2018-08-17T02:21:57.665Z,19.67
2018-08-17T02:24:25.461Z,19.73
2018-08-17T02:26:53.275Z,22.13
2018-08-17T02:29:21.320Z,22.73
2018-08-17T02:31:49.924Z,21.23
2018-08-17T02:34:17.759Z,21.63
2018-08-17T02:36:45.605Z,17.93
2018-08-17T02:39:13.649Z,19.33
2018-08-17T02:41:41.526Z,21.27
2018-08-17T02:44:09.438Z,22.37
2018-08-17T02:46:37.378Z,24.10
2018-08-17T02:49:05.601Z,22.53
2018-08-17T02:51:33.428Z,21.00
2018-08-17T02:54:01.195Z,20.20
2018-08-17T02:56:29.095Z,20.73
2018-08-17T02:58:56.931Z,20.40
2018-08-17T03:01:24.988Z,20.40
2018-08-17T03:03:52.734Z,19.43
2018-08-17T03:06:20.607Z,18.30
2018-08-17T03:08:48.452Z,18.03
2018-08-17T03:11:16.329Z,17.67
2018-08-17T03:13:44.392Z,18.97
2018-08-17T03:16:12.243Z,18.40
2018-08-17T03:18:40.400Z,19.37
2018-08-17T03:21:09.095Z,20.27
2018-08-17T03:23:37.887Z,19.37
2018-08-17T03:26:06.249Z,19.10
2018-08-17T03:28:35.430Z,18.47
2018-08-17T03:31:03.512Z,18.90
2018-08-17T03:33:31.875Z,23.03
2018-08-17T03:36:00.634Z,20.87
2018-08-17T03:38:30.055Z,18.63
2018-08-17T03:40:58.023Z,19.47
2018-08-17T03:43:26.053Z,19.93
2018-08-17T03:45:54.514Z,18.03
2018-08-17T03:48:22.307Z,19.20
2018-08-17T03:50:51.799Z,25.40
2018-08-17T03:53:19.656Z,19.70
2018-08-17T03:55:47.595Z,20.60
2018-08-17T03:58:15.455Z,23.17
2018-08-17T04:00:43.320Z,24.87
2018-08-17T04:03:11.247Z,24.67
2018-08-17T04:05:38.983Z,25.63
2018-08-17T04:08:07.023Z,27.50
2018-08-17T04:10:34.985Z,26.37
2018-08-17T04:13:04.847Z,24.17
2018-08-17T04:15:32.860Z,25.10
2018-08-17T04:18:00.726Z,25.83
2018-08-17T04:20:29.052Z,28.20
2018-08-17T04:22:56.827Z,33.53
2018-08-17T04:25:24.673Z,31.90
2018-08-17T04:27:53.823Z,28.87
2018-08-17T04:30:21.621Z,30.33
2018-08-17T04:32:49.240Z,34.37
2018-08-17T04:35:16.987Z,37.00
2018-08-17T04:37:44.748Z,32.43
2018-08-17T04:40:12.610Z,34.20
2018-08-17T04:42:40.393Z,33.17
2018-08-17T04:45:09.741Z,30.67
2018-08-17T04:47:40.234Z,33.70
2018-08-17T04:56:11.404Z,28.93
2018-08-17T04:58:47.435Z,31.13
2018-08-17T05:01:15.439Z,31.90
2018-08-17T05:03:44.746Z,31.03
2018-08-17T05:06:12.752Z,32.43
2018-08-17T05:08:42.390Z,30.37
2018-08-17T05:11:26.175Z,31.77
2018-08-17T05:17:02.302Z,36.23
2018-08-17T05:59:53.483Z,27.57
2018-08-17T06:02:22.278Z,29.73
2018-08-17T07:10:29.131Z,8.15
2018-08-17T07:12:56.698Z,5.05
2018-08-17T07:15:24.323Z,8.13
2018-08-17T07:17:51.982Z,9.68
2018-08-17T07:20:19.509Z,9.77
2018-08-17T07:22:47.315Z,7.23
2018-08-17T07:25:14.927Z,8.10
2018-08-17T07:27:42.612Z,8.80
2018-08-17T07:30:10.117Z,7.73
2018-08-17T07:32:37.659Z,8.07
2018-08-17T07:35:07.064Z,7.70
2018-08-17T07:37:34.821Z,7.23
2018-08-17T07:40:02.727Z,6.17
2018-08-17T07:42:30.292Z,4.53
2018-08-17T07:44:57.997Z,4.97
2018-08-17T07:47:25.704Z,4.65
2018-08-17T07:49:54.515Z,4.25
2018-08-17T07:52:22.372Z,3.70
2018-08-17T07:54:50.064Z,3.67
2018-08-17T07:57:18.501Z,4.03
2018-08-17T07:59:46.425Z,3.45
2018-08-17T08:02:14.307Z,4.50
2018-08-17T08:04:42.748Z,3.70
2018-08-17T08:07:10.575Z,4.22
2018-08-17T08:09:38.384Z,3.85
2018-08-17T08:12:06.917Z,3.25
2018-08-17T08:14:34.822Z,3.47
2018-08-17T08:17:02.594Z,4.30
2018-08-17T08:19:30.411Z,5.60
2018-08-17T08:21:58.384Z,5.13
2018-08-17T08:24:26.156Z,5.60
2018-08-17T08:26:54.047Z,5.80
2018-08-17T08:29:21.923Z,5.57
2018-08-17T08:31:49.938Z,6.13
2018-08-17T08:34:18.114Z,6.73
2018-08-17T08:36:45.752Z,6.47
2018-08-17T08:39:14.238Z,6.83
2018-08-17T08:41:42.218Z,7.77
2018-08-17T08:44:10.105Z,7.50
2018-08-17T08:46:38.371Z,7.30
2018-08-17T08:49:06.311Z,6.63
2018-08-17T08:51:34.318Z,5.63
2018-08-17T08:54:02.297Z,4.17
2018-08-17T08:56:30.279Z,3.80
2018-08-17T08:58:58.244Z,3.20
2018-08-17T09:01:26.109Z,3.10
2018-08-17T09:03:53.917Z,2.80
2018-08-17T09:06:22.316Z,2.60
2018-08-17T09:08:50.130Z,2.70
2018-08-17T09:11:17.980Z,2.83
2018-08-17T09:13:45.691Z,2.30
2018-08-17T09:16:13.846Z,3.33
2018-08-17T09:18:41.621Z,4.47
2018-08-17T09:21:09.660Z,3.67
2018-08-17T09:23:38.733Z,5.30
2018-08-17T09:26:07.621Z,4.47
2018-08-17T09:28:36.230Z,4.40
2018-08-17T09:31:04.643Z,5.27
2018-08-17T09:33:32.808Z,6.73
2018-08-17T09:36:01.061Z,6.83
2018-08-17T09:38:28.937Z,5.87
2018-08-17T09:40:56.756Z,5.57
2018-08-17T09:43:25.213Z,6.67
2018-08-17T09:45:53.690Z,5.53
2018-08-17T09:48:21.439Z,4.27
2018-08-17T09:50:49.060Z,3.17
2018-08-17T09:53:20.145Z,3.10
2018-08-17T09:55:48.925Z,2.90
2018-08-17T09:58:18.312Z,2.77
2018-08-17T10:00:51.894Z,3.00
2018-08-17T10:03:25.536Z,2.60
2018-08-17T10:06:00.301Z,3.03
2018-08-17T10:08:37.342Z,3.23
2018-08-17T10:11:06.645Z,3.64
2018-08-17T10:13:34.439Z,3.67
2018-08-17T10:16:08.897Z,3.50
2018-08-17T10:18:48.517Z,4.10
2018-08-17T10:21:17.061Z,4.03
2018-08-17T10:27:14.048Z,4.97
2018-08-17T10:29:42.649Z,4.60
2018-08-17T10:32:13.165Z,4.37
2018-08-17T10:34:42.972Z,4.70
2018-08-17T10:37:11.579Z,4.17
2018-08-17T10:39:47.749Z,3.93
2018-08-17T10:42:21.745Z,3.20
2018-08-17T10:44:51.871Z,3.40
2018-08-17T10:47:25.941Z,2.87
2018-08-17T10:49:54.645Z,3.30
2018-08-17T10:52:23.628Z,4.27
2018-08-17T10:54:52.475Z,4.13
2018-08-17T10:57:21.088Z,3.60
2018-08-17T10:59:49.016Z,3.73
2018-08-17T11:04:57.232Z,3.80
2018-08-17T11:07:30.204Z,3.70
2018-08-17T11:09:58.142Z,5.03
2018-08-17T11:12:26.888Z,3.90
2018-08-17T11:14:56.044Z,3.70
2018-08-17T11:17:24.706Z,3.60
2018-08-17T11:19:52.853Z,4.47
2018-08-17T11:22:21.451Z,4.17
2018-08-17T11:24:49.896Z,4.40
2018-08-17T11:27:17.657Z,4.57
2018-08-17T11:29:45.734Z,4.47
2018-08-17T11:32:14.281Z,5.13
2018-08-17T11:34:43.822Z,4.67
2018-08-17T11:37:11.735Z,5.33
2018-08-17T11:39:45.834Z,4.93
2018-08-17T11:42:13.722Z,4.97
2018-08-17T11:44:42.391Z,5.73
2018-08-17T11:47:10.240Z,6.63
2018-08-17T11:49:38.194Z,5.80
2018-08-17T11:52:08.027Z,5.80
2018-08-17T11:54:35.973Z,5.47
2018-08-17T11:57:04.508Z,5.27
2018-08-17T11:59:33.060Z,4.70
2018-08-17T12:02:01.746Z,4.80
2018-08-17T12:04:31.532Z,4.53
2018-08-17T12:07:01.537Z,5.17
2018-08-17T12:09:30.252Z,5.33
2018-08-17T12:11:59.019Z,4.80
2018-08-17T12:14:28.066Z,4.87
2018-08-17T12:16:57.918Z,4.47
2018-08-17T12:19:47.499Z,4.60
2018-08-17T12:22:18.253Z,4.67
2018-08-17T12:24:46.603Z,5.10
2018-08-17T12:27:29.363Z,4.03
2018-08-17T12:30:14.719Z,4.37
2018-08-17T12:32:44.183Z,4.40
2018-08-17T12:35:12.618Z,4.53
2018-08-17T12:37:42.656Z,4.10
2018-08-17T12:40:15.621Z,5.00
2018-08-17T12:42:44.390Z,5.00
2018-08-17T12:45:19.148Z,5.20
2018-08-17T12:47:47.424Z,4.73
2018-08-17T12:50:18.884Z,4.27
2018-08-17T12:52:47.300Z,4.43
2018-08-17T12:55:17.657Z,4.97
2018-08-17T12:57:50.840Z,5.30
2018-08-17T13:00:19.892Z,4.60
2018-08-17T13:02:49.352Z,4.63
2018-08-17T13:05:17.271Z,4.97
2018-08-17T13:07:45.583Z,5.30
2018-08-17T13:10:15.450Z,4.90
2018-08-17T13:12:53.084Z,5.47
2018-08-17T13:15:21.196Z,5.10
2018-08-17T13:17:49.361Z,5.53
2018-08-17T13:20:18.124Z,6.60
2018-08-17T13:22:46.674Z,6.93
2018-08-17T13:25:14.503Z,8.70
2018-08-17T13:27:42.705Z,8.57
2018-08-17T13:30:15.600Z,9.13
2018-08-17T13:32:46.858Z,8.73
2018-08-17T13:35:23.014Z,10.03
2018-08-17T13:37:54.983Z,8.93
2018-08-17T13:42:15.594Z,9.63
2018-08-17T13:45:06.954Z,8.80
2018-08-17T13:47:37.097Z,9.57
2018-08-17T13:50:06.556Z,9.90
2018-08-17T13:52:37.443Z,8.37
2018-08-17T13:55:07.461Z,8.77
2018-08-17T13:57:39.287Z,7.90
2018-08-17T14:00:11.125Z,7.97
2018-08-17T14:02:39.539Z,8.53
2018-08-17T14:05:08.885Z,8.43
2018-08-17T14:07:37.401Z,8.37
2018-08-17T14:10:06.986Z,8.30
2018-08-17T14:12:36.245Z,8.53
2018-08-17T14:15:04.911Z,10.30
2018-08-17T14:17:33.148Z,9.43
2018-08-17T14:22:57.916Z,6.77
2018-08-17T14:25:27.638Z,5.40
2018-08-17T14:28:07.361Z,4.83
2018-08-17T14:30:36.670Z,4.70
2018-08-17T14:33:04.849Z,4.17
2018-08-17T14:35:33.518Z,4.63
2018-08-17T14:38:02.016Z,5.80
2018-08-17T14:40:30.429Z,4.90
2018-08-17T14:43:03.395Z,4.77
2018-08-17T14:45:32.706Z,5.83
2018-08-17T14:48:01.136Z,7.20
2018-08-17T14:50:29.241Z,5.73
2018-08-17T14:52:58.920Z,5.20
2018-08-17T14:55:27.835Z,4.90
2018-08-17T14:57:56.658Z,4.60
2018-08-17T15:00:25.968Z,4.27
2018-08-17T15:02:56.910Z,4.73
2018-08-17T15:05:45.470Z,6.63
2018-08-17T15:11:11.507Z,6.00
2018-08-17T15:13:41.331Z,4.57
2018-08-17T15:30:19.840Z,3.57
2018-08-17T15:32:58.223Z,3.70
2018-08-17T15:35:28.582Z,3.50
2018-08-17T15:38:15.089Z,3.30
2018-08-17T15:40:44.124Z,3.10
2018-08-17T15:43:23.270Z,3.20
2018-08-17T15:45:54.524Z,3.40
2018-08-17T15:48:56.314Z,3.03
2018-08-17T15:51:26.236Z,3.27
2018-08-17T15:53:58.751Z,2.83
2018-08-17T15:56:28.506Z,3.23
2018-08-17T15:58:59.307Z,3.10
2018-08-17T16:01:27.856Z,2.67
2018-08-17T16:06:48.804Z,2.40
2018-08-17T16:09:17.521Z,2.13
2018-08-17T16:11:48.778Z,1.77
2018-08-17T16:17:09.236Z,2.20
2018-08-17T16:19:38.523Z,2.30
2018-08-17T16:22:07.015Z,1.97
2018-08-17T16:25:21.991Z,2.50
2018-08-17T16:28:12.149Z,1.83
2018-08-17T16:30:41.264Z,2.07
2018-08-17T16:33:09.383Z,1.83
2018-08-17T16:35:37.514Z,2.03
2018-08-17T16:38:05.734Z,2.00
2018-08-17T16:40:39.235Z,1.80
2018-08-17T16:43:07.183Z,1.90
2018-08-17T16:45:35.214Z,2.00
2018-08-17T16:48:03.289Z,2.30
2018-08-17T16:50:31.972Z,2.00
2018-08-17T16:52:59.718Z,1.90
2018-08-17T16:55:28.272Z,1.97
2018-08-17T16:57:57.431Z,2.23
2018-08-17T17:00:26.227Z,1.80
2018-08-17T17:03:04.624Z,2.00
2018-08-17T17:08:36.328Z,1.20
2018-08-17T17:11:16.752Z,1.47
2018-08-17T17:16:46.663Z,1.33
2018-08-17T17:19:19.052Z,1.80
2018-08-17T17:22:00.906Z,1.40
2018-08-17T17:27:33.755Z,1.20
2018-08-17T17:30:06.216Z,1.30
2018-08-17T17:32:35.772Z,1.30
2018-08-17T17:35:05.604Z,1.37
2018-08-17T17:37:35.695Z,1.27
2018-08-17T17:40:08.090Z,1.40
2018-08-17T17:42:37.513Z,1.40
2018-08-17T17:45:07.501Z,1.30
2018-08-17T17:47:38.227Z,1.83
2018-08-17T17:53:29.922Z,1.80
2018-08-17T17:56:12.481Z,2.17
2018-08-17T17:58:49.710Z,1.20
2018-08-17T18:01:26.646Z,1.50
2018-08-17T18:03:55.992Z,2.00
2018-08-17T18:06:34.308Z,1.87
2018-08-17T18:09:08.864Z,1.80
2018-08-17T18:14:38.713Z,2.43
2018-08-17T18:17:09.876Z,2.27
2018-08-17T18:19:38.562Z,1.97
2018-08-17T18:22:12.157Z,2.00
2018-08-17T18:24:52.158Z,2.30
2018-08-17T18:27:22.988Z,2.27
2018-08-17T18:30:06.013Z,1.70
2018-08-17T18:35:18.239Z,2.00
2018-08-17T18:37:49.159Z,1.83
2018-08-17T18:40:20.742Z,2.17
2018-08-17T18:42:49.817Z,2.50
2018-08-17T18:45:25.832Z,2.20
2018-08-17T18:47:57.660Z,2.47
2018-08-17T18:50:29.881Z,2.50
2018-08-17T18:53:03.059Z,2.60
2018-08-17T18:55:31.906Z,2.70
2018-08-17T18:58:04.995Z,2.70
2018-08-17T19:00:34.323Z,2.60
2018-08-17T19:03:03.908Z,2.70
2018-08-17T19:05:36.495Z,3.23
2018-08-17T19:08:22.987Z,2.57
2018-08-17T19:11:02.848Z,3.37
2018-08-17T19:16:23.703Z,3.23
2018-08-17T19:18:56.573Z,3.60
2018-08-17T19:21:27.097Z,2.70
2018-08-17T20:09:18.550Z,2.63
2018-08-17T20:11:46.825Z,3.20
2018-08-17T20:14:16.896Z,2.87
2018-08-17T20:16:45.345Z,2.73
2018-08-17T20:19:14.158Z,3.10
2018-08-17T20:21:45.612Z,3.47
2018-08-17T20:24:14.200Z,3.43
2018-08-17T20:26:43.618Z,3.20
2018-08-17T20:29:14.290Z,3.03
2018-08-17T20:31:44.919Z,3.70
2018-08-17T20:34:13.515Z,3.10
2018-08-17T20:36:41.213Z,3.13
2018-08-17T20:39:10.699Z,2.97
2018-08-17T20:41:51.552Z,3.30
2018-08-17T20:45:32.591Z,3.80
2018-08-17T20:48:03.935Z,3.90
2018-08-17T20:50:56.946Z,3.43
2018-08-17T20:53:25.303Z,3.70
2018-08-17T20:55:53.143Z,3.17
2018-08-17T20:58:21.039Z,3.73
2018-08-17T21:00:50.313Z,2.60
2018-08-17T21:03:24.221Z,3.13
2018-08-17T21:05:56.019Z,3.53
2018-08-17T21:11:13.470Z,4.47
2018-08-17T21:16:49.898Z,2.90
2018-08-17T21:19:33.153Z,2.90
2018-08-17T21:22:29.355Z,3.50
2018-08-17T21:31:20.461Z,3.60
2018-08-17T21:34:01.391Z,3.97
2018-08-17T21:39:42.189Z,4.30
2018-08-17T21:42:35.481Z,4.03
2018-08-17T21:45:10.130Z,4.43
2018-08-17T21:48:01.974Z,5.37
2018-08-17T21:50:34.287Z,5.30
2018-08-17T21:58:31.252Z,7.90
2018-08-17T22:01:11.285Z,6.77
2018-08-17T22:03:42.948Z,5.63
2018-08-17T22:11:49.365Z,5.43
2018-08-17T22:17:12.200Z,7.00
2018-08-17T22:19:44.068Z,6.17
2018-08-17T22:22:21.790Z,5.23
2018-08-17T22:24:54.858Z,6.67
2018-08-17T22:27:37.808Z,7.20
2018-08-17T22:30:14.076Z,8.17
2018-08-17T22:32:45.609Z,7.27
2018-08-17T22:35:15.387Z,7.90
2018-08-17T22:37:45.638Z,6.97
2018-08-17T22:40:15.249Z,7.30
2018-08-17T22:42:49.558Z,7.37
2018-08-17T22:45:19.213Z,7.87
2018-08-17T22:47:47.208Z,6.70
2018-08-17T22:50:15.934Z,7.53
2018-08-17T22:52:46.836Z,7.37
2018-08-17T22:55:15.850Z,8.37
2018-08-17T22:57:51.987Z,9.33
2018-08-17T23:00:23.995Z,9.87
2018-08-17T23:03:04.637Z,9.10
2018-08-17T23:05:35.901Z,9.97
2018-08-17T23:08:06.734Z,10.30
2018-08-17T23:13:28.494Z,8.50
2018-08-17T23:16:02.962Z,7.93
2018-08-17T23:18:41.641Z,7.47
2018-08-17T23:21:15.908Z,6.80
2018-08-17T23:23:44.754Z,6.53
2018-08-17T23:26:12.831Z,5.13
2018-08-17T23:28:42.797Z,5.00
2018-08-17T23:31:11.678Z,5.00
2018-08-17T23:34:30.447Z,4.30
2018-08-17T23:37:11.292Z,4.40
2018-08-17T23:39:49.880Z,4.20
2018-08-17T23:42:18.321Z,3.90
2018-08-17T23:44:49.284Z,3.83
2018-08-17T23:47:25.926Z,3.73
2018-08-17T23:50:00.345Z,3.83
2018-08-17T23:52:29.809Z,3.93
2018-08-17T23:57:40.339Z,4.17
